Flight Track Log - Related Links

Times and Time Zones

All times are in EDT time to prevent confusion due to time zone crossing. See the MTN8305 flight status page for this flight to view local times or setup timezone preferences in your user account.

Time Position Orientation Groundspeed Altitude Reporting Facility
EDT Latitude Longitude Course Direction KTS MPH feet Rate Location/Type
Thu 04:08:08 AM 40.6500 -74.2000 270° West 122 140 1,600  Level New York TRACON
Thu 04:09:08 AM 40.6500 -74.2333 270° West 102 117 2,700 1,050 Climbing New York TRACON
Thu 04:10:08 AM 40.6500 -74.2667 270° West 98 113 3,700 650 Climbing New York TRACON
Thu 04:11:08 AM 40.6333 -74.3000 237° Southwest 117 135 4,000 150 Climbing New York TRACON
Thu 04:12:08 AM 40.6333 -74.3500 270° West 128 147 4,000  Level New York TRACON
Thu 04:13:00 AM 40.6333 -74.4437 270° West  Level FlightAware Approximate
Thu 04:13:08 AM 40.6333 -74.4000 270° West 131 151 4,000  Level New York TRACON
Thu 04:14:08 AM 40.6167 -74.4500 246° West 132 152 4,000  Level New York TRACON
Thu 04:15:08 AM 40.6167 -74.5000 270° West 130 150 4,000  Level New York TRACON
Thu 04:16:08 AM 40.6000 -74.5333 237° Southwest 127 146 4,000  Level New York TRACON
Thu 04:17:08 AM 40.6000 -74.5833 270° West 129 148 4,000  Level New York TRACON
Thu 04:18:08 AM 40.6000 -74.6333 270° West 131 151 4,000  Level New York TRACON
Thu 04:19:46 AM 40.5833 -74.7167 255° West 133 153 4,000  Level Philadelphia TRACON
Thu 04:20:52 AM 40.5833 -74.7667 270° West 129 148 4,000  Level Philadelphia TRACON
Thu 04:21:52 AM 40.5833 -74.8167 270° West 130 150 4,000  Level Philadelphia TRACON
Thu 04:22:52 AM 40.5667 -74.8500 237° Southwest 129 148 4,000  Level Philadelphia TRACON
Thu 04:23:52 AM 40.5667 -74.9000 270° West 127 146 4,000  Level Philadelphia TRACON
Thu 04:24:52 AM 40.5667 -74.9500 270° West 126 145 4,000  Level Philadelphia TRACON
Thu 04:25:52 AM 40.5667 -75.0000 270° West 132 152 4,000  Level Philadelphia TRACON
Thu 04:26:52 AM 40.5333 -75.0333 217° Southwest 152 175 4,000  Level Philadelphia TRACON
Thu 04:27:53 AM 40.5000 -75.0667 217° Southwest 143 165 4,000  Level Philadelphia TRACON
Thu 04:28:53 AM 40.4667 -75.1000 217° Southwest 145 167 4,000  Level Philadelphia TRACON
Thu 04:29:53 AM 40.4333 -75.1333 217° Southwest 146 168 4,000  Level Philadelphia TRACON
Thu 04:30:53 AM 40.4000 -75.1667 217° Southwest 146 168 4,000  Level Philadelphia TRACON
Thu 04:31:53 AM 40.3667 -75.2000 217° Southwest 147 169 4,000  Level Philadelphia TRACON
Thu 04:32:53 AM 40.3333 -75.2333 217° Southwest 146 168 4,000  Level Philadelphia TRACON
Thu 04:33:53 AM 40.3167 -75.2667 237° Southwest 144 166 4,000  Level Philadelphia TRACON
Thu 04:34:53 AM 40.2833 -75.3000 217° Southwest 146 168 4,000  Level Philadelphia TRACON
Thu 04:35:53 AM 40.2500 -75.3333 217° Southwest 146 168 4,000  Level Philadelphia TRACON
Thu 04:36:53 AM 40.2167 -75.3667 217° Southwest 145 167 4,000  Level Philadelphia TRACON
Thu 04:37:53 AM 40.1833 -75.4000 217° Southwest 145 167 4,000  Level Philadelphia TRACON
Thu 04:38:54 AM 40.1500 -75.4333 217° Southwest 146 168 4,000  Level Philadelphia TRACON
Thu 04:39:54 AM 40.1167 -75.4667 217° Southwest 145 167 4,000  Level Philadelphia TRACON
Thu 04:40:54 AM 40.0833 -75.5000 217° Southwest 143 165 4,000  Level Philadelphia TRACON
Thu 04:41:54 AM 40.0500 -75.5167 201° Southwest 143 165 4,000  Level Philadelphia TRACON
Thu 04:43:00 AM 40.0333 -75.5667 246° West 140 161 4,000  Level Philadelphia TRACON
Thu 04:44:06 AM 40.0000 -75.6000 217° Southwest 139 160 4,000  Level Philadelphia TRACON
Thu 04:45:12 AM 39.9667 -75.6500 229° Southwest 140 161 4,000  Level Philadelphia TRACON
Thu 04:46:12 AM 39.9333 -75.6833 217° Southwest 140 161 4,000  Level Philadelphia TRACON
Thu 04:47:12 AM 39.9167 -75.7167 237° Southwest 140 161 4,000  Level Philadelphia TRACON
Thu 04:48:12 AM 39.8833 -75.7500 218° Southwest 140 161 4,000  Level Philadelphia TRACON
Thu 04:49:12 AM 39.8500 -75.7833 218° Southwest 142 163 4,000  Level Philadelphia TRACON
Thu 04:50:12 AM 39.8333 -75.8333 247° West 143 165 4,000  Level Philadelphia TRACON
Thu 04:52:26 AM 39.7667 -75.9000 218° Southwest 146 168 4,000  Level Potomac TRACON
Thu 04:53:26 AM 39.7333 -75.9333 218° Southwest 144 166 4,000  Level Potomac TRACON
Thu 04:54:26 AM 39.7167 -75.9667 237° Southwest 142 163 4,000  Level Potomac TRACON
Thu 04:55:26 AM 39.6833 -76.0167 229° Southwest 143 165 4,000  Level Potomac TRACON
Thu 04:56:26 AM 39.6500 -76.0500 218° Southwest 146 168 4,000  Level Potomac TRACON
Thu 04:57:26 AM 39.6333 -76.0833 237° Southwest 146 168 4,000  Level Potomac TRACON
Thu 04:58:26 AM 39.6000 -76.1333 229° Southwest 145 167 4,000  Level Potomac TRACON
Thu 04:59:26 AM 39.5667 -76.1667 218° Southwest 146 168 4,000  Level Potomac TRACON
Thu 05:00:26 AM 39.5333 -76.2000 218° Southwest 148 170 4,000  Level Potomac TRACON
Thu 05:01:26 AM 39.5000 -76.2333 218° Southwest 145 167 4,000  Level Potomac TRACON
Thu 05:02:26 AM 39.4833 -76.2833 247° West 148 170 4,000  Level Potomac TRACON
Thu 05:03:26 AM 39.4500 -76.3167 218° Southwest 146 168 4,000  Level Potomac TRACON
Thu 05:04:26 AM 39.4167 -76.3500 218° Southwest 146 168 4,000  Level Potomac TRACON
Thu 05:05:26 AM 39.4000 -76.3833 237° Southwest 147 169 4,000 -100 Level Potomac TRACON
Thu 05:06:26 AM 39.3500 -76.4167 207° Southwest 156 180 3,800 -200 Descending Potomac TRACON
Thu 05:07:26 AM 39.3167 -76.4500 218° Southwest 153 176 3,600 -300 Descending Potomac TRACON
Thu 05:08:26 AM 39.2833 -76.4833 218° Southwest 157 181 3,200 -400 Descending Potomac TRACON

Login

Don't have an account? Register now (free) for customized features, flight alerts, and more!